createdAt,value
2018-12-01T00:01:20.981Z,87.91
2018-12-01T00:04:25.968Z,87.80
2018-12-01T00:07:30.975Z,89.49
2018-12-01T00:10:35.973Z,88.05
2018-12-01T00:13:40.947Z,87.99
2018-12-01T00:16:45.927Z,89.14
2018-12-01T00:19:50.959Z,88.30
2018-12-01T00:22:55.947Z,88.56
2018-12-01T00:33:59.074Z,89.05
2018-12-01T00:37:04.524Z,89.40
2018-12-01T00:40:11.899Z,88.95
2018-12-01T00:43:16.878Z,89.16
2018-12-01T00:46:21.827Z,88.28
2018-12-01T00:49:26.775Z,89.13
2018-12-01T00:52:31.714Z,88.88
2018-12-01T00:55:36.690Z,88.81
2018-12-01T00:59:02.501Z,88.70
2018-12-01T01:02:12.055Z,89.34
2018-12-01T01:05:17.055Z,89.90
2018-12-01T01:08:22.024Z,89.77
2018-12-01T01:11:27.048Z,89.57
2018-12-01T01:14:32.702Z,89.53
2018-12-01T01:17:37.872Z,89.95
2018-12-01T01:20:42.879Z,90.19
2018-12-01T01:23:47.907Z,89.93
2018-12-01T01:26:52.990Z,89.37
2018-12-01T01:29:58.031Z,90.33
2018-12-01T01:33:14.727Z,89.54
2018-12-01T01:36:19.690Z,90.63
2018-12-01T01:39:24.647Z,89.99
2018-12-01T01:42:29.632Z,90.17
2018-12-01T01:45:34.638Z,90.11
2018-12-01T01:48:39.666Z,90.35
2018-12-01T01:51:44.648Z,88.53
2018-12-01T01:54:49.626Z,88.67
2018-12-01T01:57:54.624Z,89.67
2018-12-01T02:00:59.604Z,89.69
2018-12-01T02:04:05.019Z,88.40
2018-12-01T02:07:10.016Z,89.28
2018-12-01T02:10:15.868Z,89.23
2018-12-01T02:13:20.903Z,89.18
2018-12-01T02:16:25.838Z,88.73
2018-12-01T02:19:31.123Z,88.52
2018-12-01T02:22:36.238Z,89.16
2018-12-01T02:25:41.207Z,88.30
2018-12-01T02:28:46.251Z,88.13
2018-12-01T02:31:51.231Z,88.50
2018-12-01T02:34:56.184Z,88.43
2018-12-01T02:38:01.164Z,88.33
2018-12-01T02:41:06.132Z,87.76
2018-12-01T02:45:24.634Z,88.51
2018-12-01T02:48:29.598Z,90.02
2018-12-01T02:51:34.533Z,89.74
2018-12-01T02:54:39.539Z,89.01
2018-12-01T02:57:44.538Z,89.59
2018-12-01T03:00:49.476Z,88.63
2018-12-01T03:03:54.462Z,89.14
2018-12-01T03:06:59.413Z,88.29
2018-12-01T03:10:09.327Z,89.66
2018-12-01T03:13:14.323Z,89.52
2018-12-01T03:16:20.000Z,89.39
2018-12-01T03:19:25.388Z,89.00
2018-12-01T03:22:31.159Z,88.35
2018-12-01T03:25:36.149Z,89.59
2018-12-01T03:28:41.273Z,89.37
2018-12-01T03:31:46.620Z,89.05
2018-12-01T03:34:52.534Z,89.45
2018-12-01T03:37:57.718Z,89.26
2018-12-01T03:41:02.736Z,89.25
2018-12-01T03:44:07.709Z,89.13
2018-12-01T03:47:14.375Z,88.75
2018-12-01T03:50:23.597Z,88.86
2018-12-01T03:53:28.601Z,89.37
2018-12-01T03:56:33.512Z,89.06
2018-12-01T03:59:45.288Z,89.36
2018-12-01T04:02:50.227Z,89.17
2018-12-01T04:05:55.135Z,90.31
2018-12-01T04:09:04.671Z,90.22
2018-12-01T04:12:09.587Z,90.15
2018-12-01T04:15:14.550Z,91.08
2018-12-01T04:18:19.464Z,90.05
2018-12-01T04:21:24.422Z,90.59
2018-12-01T04:24:29.327Z,90.03
2018-12-01T04:27:34.488Z,90.61
2018-12-01T04:30:39.387Z,89.66
2018-12-01T04:33:44.332Z,90.76
2018-12-01T04:36:49.783Z,91.63
2018-12-01T04:39:54.726Z,91.95
2018-12-01T04:42:59.670Z,90.74
2018-12-01T04:46:04.771Z,90.39
2018-12-01T04:49:10.587Z,91.40
2018-12-01T04:52:15.467Z,91.35
2018-12-01T04:55:20.598Z,90.85
2018-12-01T04:58:25.519Z,91.92
2018-12-01T05:01:30.446Z,91.28
2018-12-01T05:04:35.383Z,90.63
2018-12-01T05:07:40.293Z,90.58
2018-12-01T05:10:45.219Z,90.06
2018-12-01T05:13:50.159Z,91.31
2018-12-01T05:16:55.071Z,90.08
2018-12-01T05:19:59.970Z,90.27
2018-12-01T05:23:04.906Z,89.99
2018-12-01T05:26:09.819Z,91.32
2018-12-01T05:29:14.718Z,90.72
2018-12-01T05:32:19.678Z,90.19
2018-12-01T05:35:24.679Z,90.46
2018-12-01T05:38:29.607Z,90.89
2018-12-01T05:41:34.612Z,92.44
2018-12-01T05:44:39.539Z,91.82
2018-12-01T05:47:44.489Z,91.97
2018-12-01T05:50:49.455Z,91.96
2018-12-01T05:53:54.403Z,91.33
2018-12-01T05:56:59.330Z,90.90
2018-12-01T06:00:07.670Z,91.42
2018-12-01T06:03:12.609Z,92.15
2018-12-01T06:06:17.555Z,92.01
2018-12-01T06:09:22.515Z,92.60
2018-12-01T06:12:27.451Z,92.30
2018-12-01T06:15:32.394Z,92.74
2018-12-01T06:18:37.342Z,92.51
2018-12-01T06:21:42.267Z,91.94
2018-12-01T06:24:47.222Z,92.59
2018-12-01T06:27:52.184Z,92.52
2018-12-01T06:30:57.154Z,92.49
2018-12-01T06:34:02.633Z,93.93
2018-12-01T06:37:07.850Z,94.76
2018-12-01T06:40:14.869Z,93.74
2018-12-01T06:43:20.003Z,93.12
2018-12-01T06:46:24.985Z,93.59
2018-12-01T06:49:30.027Z,93.31
2018-12-01T06:52:35.219Z,92.64
2018-12-01T06:55:40.271Z,92.91
2018-12-01T06:58:45.311Z,92.09
2018-12-01T07:01:50.324Z,92.43
2018-12-01T07:04:55.434Z,93.72
2018-12-01T07:08:00.540Z,92.69
2018-12-01T07:11:05.807Z,92.27
2018-12-01T07:14:10.844Z,92.51
2018-12-01T07:17:15.837Z,92.54
2018-12-01T07:20:20.995Z,93.08
2018-12-01T07:23:25.943Z,95.34
2018-12-01T07:26:30.910Z,95.98
2018-12-01T07:29:35.860Z,95.19
2018-12-01T07:32:41.500Z,94.59
2018-12-01T07:35:46.443Z,93.51
2018-12-01T07:38:51.386Z,93.30
2018-12-01T07:41:56.347Z,93.37
2018-12-01T07:45:01.650Z,92.50
2018-12-01T07:48:06.927Z,93.33
2018-12-01T07:51:12.504Z,91.79
2018-12-01T07:54:17.579Z,91.19
2018-12-01T07:57:22.489Z,91.15
2018-12-01T08:00:27.496Z,90.21
2018-12-01T08:03:32.454Z,91.69
2018-12-01T08:06:37.471Z,90.57
2018-12-01T08:09:50.231Z,89.82
2018-12-01T08:12:55.228Z,89.16
2018-12-01T08:16:00.211Z,88.32
2018-12-01T08:19:05.247Z,88.80
2018-12-01T08:22:10.247Z,87.60
2018-12-01T08:25:17.387Z,87.67
2018-12-01T08:28:23.580Z,86.67
2018-12-01T08:31:29.597Z,86.37
2018-12-01T08:34:33.518Z,86.06
2018-12-01T08:37:38.495Z,87.04
2018-12-01T08:40:43.598Z,86.60
2018-12-01T08:43:48.622Z,86.81
2018-12-01T08:46:53.634Z,86.21
2018-12-01T08:49:58.691Z,86.78
2018-12-01T08:53:03.944Z,85.42
2018-12-01T08:56:08.907Z,85.21
2018-12-01T08:59:13.924Z,84.61
2018-12-01T09:02:18.911Z,85.76
2018-12-01T09:05:23.973Z,84.73
2018-12-01T09:08:28.948Z,84.49
2018-12-01T09:11:34.021Z,84.37
2018-12-01T09:14:39.087Z,84.48
2018-12-01T09:17:44.108Z,83.44
2018-12-01T09:20:49.108Z,83.53
2018-12-01T09:23:54.053Z,83.48
2018-12-01T09:26:59.078Z,80.54
2018-12-01T09:30:08.428Z,80.07
2018-12-01T09:33:13.431Z,79.74
2018-12-01T09:36:18.507Z,81.34
2018-12-01T09:39:23.473Z,79.97
2018-12-01T09:42:28.567Z,79.89
2018-12-01T09:45:33.729Z,82.26
2018-12-01T09:48:38.731Z,82.59
2018-12-01T09:51:43.822Z,82.09
2018-12-01T09:54:48.802Z,82.08
2018-12-01T09:57:56.069Z,80.53
2018-12-01T10:01:01.069Z,78.87
2018-12-01T10:04:06.075Z,77.08
2018-12-01T10:07:11.074Z,76.35
2018-12-01T10:10:17.094Z,76.29
2018-12-01T10:13:22.597Z,76.11
2018-12-01T10:16:31.743Z,75.76
2018-12-01T10:19:36.720Z,75.11
2018-12-01T10:22:41.682Z,76.69
2018-12-01T10:25:46.606Z,75.27
2018-12-01T10:28:51.621Z,73.98
2018-12-01T10:31:56.571Z,73.76
2018-12-01T10:35:01.544Z,74.01
2018-12-01T10:38:10.176Z,74.56
2018-12-01T10:41:15.193Z,75.05
2018-12-01T10:44:20.230Z,75.82
2018-12-01T10:47:25.191Z,76.40
2018-12-01T10:50:30.166Z,76.50
2018-12-01T10:53:35.249Z,77.15
2018-12-01T10:56:40.272Z,75.81
2018-12-01T10:59:45.442Z,76.80
2018-12-01T11:03:00.093Z,76.33
2018-12-01T11:06:08.767Z,77.00
2018-12-01T11:09:13.719Z,77.01
2018-12-01T11:12:18.685Z,78.18
2018-12-01T11:15:23.801Z,79.95
2018-12-01T11:18:28.772Z,79.80
2018-12-01T11:21:33.792Z,80.08
2018-12-01T11:24:38.761Z,81.67
2018-12-01T11:27:43.869Z,81.23
2018-12-01T11:30:48.798Z,80.59
2018-12-01T11:33:53.764Z,78.95
2018-12-01T11:36:58.840Z,76.96
2018-12-01T11:40:05.734Z,76.95
2018-12-01T11:43:10.778Z,75.10
2018-12-01T11:46:15.820Z,74.96
2018-12-01T11:49:21.035Z,75.17
2018-12-01T11:52:26.176Z,76.17
2018-12-01T11:55:39.055Z,75.36
2018-12-01T11:58:44.056Z,76.92
2018-12-01T12:01:49.455Z,76.38
2018-12-01T12:04:54.747Z,75.96
2018-12-01T12:08:13.172Z,75.40
2018-12-01T12:11:18.136Z,75.25
2018-12-01T12:14:23.197Z,76.82
2018-12-01T12:17:28.251Z,75.50
2018-12-01T12:20:44.707Z,76.24
2018-12-01T12:23:49.657Z,73.44
2018-12-01T12:26:54.621Z,74.07
2018-12-01T12:29:59.606Z,74.35
2018-12-01T12:33:05.237Z,73.60
2018-12-01T12:36:10.203Z,75.80
2018-12-01T12:39:15.225Z,74.97
2018-12-01T12:42:20.486Z,73.89
2018-12-01T12:45:25.486Z,73.92
2018-12-01T12:48:30.531Z,74.33
2018-12-01T12:51:35.497Z,73.35
2018-12-01T12:54:40.484Z,74.87
2018-12-01T12:57:45.572Z,75.23
2018-12-01T13:00:51.508Z,75.37
2018-12-01T13:03:56.489Z,73.91
2018-12-01T13:07:01.461Z,73.81
2018-12-01T13:10:09.200Z,73.26
2018-12-01T13:13:15.513Z,73.98
2018-12-01T13:16:20.518Z,72.56
2018-12-01T13:19:25.458Z,72.84
2018-12-01T13:22:30.463Z,73.28
2018-12-01T13:25:36.098Z,73.20
2018-12-01T13:28:41.136Z,73.06
2018-12-01T13:31:46.115Z,72.94
2018-12-01T13:34:51.135Z,72.08
2018-12-01T13:37:56.157Z,71.53
2018-12-01T13:41:01.214Z,72.72
2018-12-01T13:44:06.305Z,71.84
2018-12-01T13:47:11.338Z,71.58
2018-12-01T13:50:17.404Z,71.44
2018-12-01T13:53:22.386Z,71.80
2018-12-01T13:56:27.387Z,70.73
2018-12-01T13:59:32.860Z,71.36
2018-12-01T14:02:37.838Z,71.10
2018-12-01T14:05:43.254Z,70.94
2018-12-01T14:08:48.296Z,71.99
2018-12-01T14:11:53.253Z,72.65
2018-12-01T14:14:58.234Z,72.21
2018-12-01T14:18:03.412Z,73.86
2018-12-01T14:21:08.544Z,72.84
2018-12-01T14:24:13.592Z,72.75
2018-12-01T14:27:18.576Z,72.78
2018-12-01T14:30:24.323Z,73.36
2018-12-01T14:33:29.328Z,74.18
2018-12-01T14:36:34.301Z,73.43
2018-12-01T14:39:39.295Z,74.94
2018-12-01T14:42:52.196Z,74.21
2018-12-01T14:45:58.802Z,75.20
2018-12-01T14:49:04.472Z,73.85
2018-12-01T14:52:09.650Z,73.95
2018-12-01T14:55:16.453Z,73.98
2018-12-01T14:58:21.384Z,74.37
2018-12-01T15:01:26.503Z,75.25
2018-12-01T15:04:35.068Z,74.88
2018-12-01T15:07:40.153Z,75.09
2018-12-01T15:10:45.229Z,76.15
2018-12-01T15:13:50.307Z,75.37
2018-12-01T15:16:55.351Z,76.49
2018-12-01T15:20:00.371Z,75.48
2018-12-01T15:23:06.168Z,76.06
2018-12-01T15:26:11.179Z,76.74
2018-12-01T15:29:16.144Z,75.30
2018-12-01T15:32:21.301Z,76.74
2018-12-01T15:35:37.356Z,76.72
2018-12-01T15:38:42.419Z,77.02
2018-12-01T15:41:47.383Z,77.18
2018-12-01T15:44:52.399Z,77.70
2018-12-01T15:47:57.347Z,77.80
2018-12-01T15:51:02.285Z,77.04
2018-12-01T15:54:07.580Z,78.33
2018-12-01T15:57:12.514Z,78.51
2018-12-01T16:00:19.505Z,76.67
2018-12-01T16:03:24.850Z,77.55
2018-12-01T16:06:30.039Z,76.41
2018-12-01T16:09:35.754Z,76.50
2018-12-01T16:12:41.003Z,77.47
2018-12-01T16:15:48.267Z,77.24
2018-12-01T16:18:53.254Z,77.72
2018-12-01T16:21:58.447Z,77.61
2018-12-01T16:25:04.713Z,75.96
2018-12-01T16:28:10.353Z,77.08
2018-12-01T16:31:16.684Z,76.50
2018-12-01T16:34:21.647Z,77.51
2018-12-01T16:37:26.807Z,76.75
2018-12-01T16:40:38.955Z,76.99
2018-12-01T16:43:44.354Z,77.15
2018-12-01T16:46:49.536Z,77.88
2018-12-01T16:49:54.707Z,77.75
2018-12-01T16:53:37.763Z,78.20
2018-12-01T16:56:43.064Z,79.69
2018-12-01T16:59:48.248Z,80.01
2018-12-01T17:02:54.775Z,80.29
2018-12-01T17:06:02.836Z,79.90
2018-12-01T17:09:08.643Z,81.31
2018-12-01T17:12:13.682Z,81.92
2018-12-01T17:15:19.528Z,82.02
2018-12-01T17:18:24.514Z,82.63
2018-12-01T17:21:29.492Z,81.50
2018-12-01T17:28:34.012Z,81.62
2018-12-01T17:31:38.999Z,81.46
2018-12-01T17:34:44.003Z,82.27
2018-12-01T17:37:50.409Z,80.80
2018-12-01T17:40:57.735Z,82.46
2018-12-01T17:44:05.674Z,81.39
2018-12-01T17:47:10.667Z,81.41
2018-12-01T17:50:16.164Z,81.35
2018-12-01T17:53:21.519Z,81.30
2018-12-01T17:56:26.539Z,80.51
2018-12-01T17:59:31.486Z,80.19
2018-12-01T18:02:36.459Z,81.09
2018-12-01T18:05:44.105Z,79.93
2018-12-01T18:08:49.097Z,79.45
2018-12-01T18:11:54.070Z,78.79
2018-12-01T18:14:59.062Z,79.42
2018-12-01T18:18:04.834Z,78.40
2018-12-01T18:21:10.003Z,78.61
2018-12-01T18:24:15.105Z,78.15
2018-12-01T18:27:20.089Z,78.58
2018-12-01T18:30:27.692Z,77.96
2018-12-01T18:33:34.875Z,77.90
2018-12-01T18:36:39.856Z,78.28
2018-12-01T18:39:44.818Z,78.75
2018-12-01T18:42:53.579Z,77.50
2018-12-01T18:46:00.246Z,76.25
2018-12-01T18:49:05.785Z,77.03
2018-12-01T18:52:10.717Z,77.02
2018-12-01T18:55:15.681Z,75.72
2018-12-01T18:58:20.667Z,76.77
2018-12-01T19:01:25.632Z,75.09
2018-12-01T19:04:31.435Z,75.25
2018-12-01T19:07:36.935Z,75.89
2018-12-01T19:10:41.838Z,74.85
2018-12-01T19:13:46.774Z,74.09
2018-12-01T19:16:52.098Z,73.70
2018-12-01T19:19:57.087Z,75.16
2018-12-01T19:23:02.103Z,75.07
2018-12-01T19:26:07.115Z,75.74
2018-12-01T19:29:12.542Z,74.88
2018-12-01T19:32:17.640Z,76.37
2018-12-01T19:35:22.651Z,76.65
2018-12-01T19:38:28.630Z,75.68
2018-12-01T19:41:33.679Z,75.50
2018-12-01T19:44:38.604Z,76.46
2018-12-01T19:47:43.785Z,75.96
2018-12-01T19:50:48.710Z,75.66
2018-12-01T19:53:53.811Z,74.70
2018-12-01T19:56:59.112Z,74.17
2018-12-01T20:00:05.426Z,74.34
2018-12-01T20:03:12.610Z,73.61
2018-12-01T20:06:17.695Z,73.75
2018-12-01T20:09:22.688Z,72.28
2018-12-01T20:12:27.752Z,73.21
2018-12-01T20:15:39.100Z,72.98
2018-12-01T20:18:44.906Z,72.18
2018-12-01T20:21:49.999Z,72.21
2018-12-01T20:24:54.935Z,71.03
2018-12-01T20:27:59.914Z,72.46
2018-12-01T20:31:05.091Z,71.25
2018-12-01T20:34:10.201Z,70.86
2018-12-01T20:37:16.724Z,73.04
2018-12-01T20:40:21.678Z,73.74
2018-12-01T20:43:26.679Z,72.90
2018-12-01T20:46:31.699Z,74.16
2018-12-01T20:49:37.025Z,73.83
2018-12-01T20:52:43.356Z,74.34
2018-12-01T20:55:50.992Z,74.71
2018-12-01T20:58:56.040Z,75.37
2018-12-01T21:02:01.665Z,75.42
2018-12-01T21:05:10.563Z,75.04
2018-12-01T21:08:15.503Z,75.48
2018-12-01T21:11:20.448Z,74.61
2018-12-01T21:14:25.427Z,76.44
2018-12-01T21:17:30.375Z,76.92
2018-12-01T21:20:35.483Z,76.85
2018-12-01T21:23:40.519Z,76.26
2018-12-01T21:26:45.459Z,76.53
2018-12-01T21:29:50.405Z,77.58
2018-12-01T21:33:09.432Z,77.35
2018-12-01T21:36:14.382Z,77.12
2018-12-01T21:39:19.506Z,78.58
2018-12-01T21:42:24.440Z,77.86
2018-12-01T21:45:29.398Z,78.75
2018-12-01T21:48:34.523Z,78.28
2018-12-01T21:51:39.663Z,78.28
2018-12-01T21:54:44.716Z,79.45
2018-12-01T21:57:50.774Z,80.20
2018-12-01T22:00:58.399Z,80.42
2018-12-01T22:04:03.458Z,79.60
2018-12-01T22:07:08.424Z,80.78
2018-12-01T22:10:15.178Z,79.70
2018-12-01T22:13:20.146Z,79.58
2018-12-01T22:16:25.092Z,80.61
2018-12-01T22:19:30.059Z,79.97
2018-12-01T22:22:35.045Z,80.36
2018-12-01T22:25:40.243Z,80.36
2018-12-01T22:28:45.286Z,81.46
2018-12-01T22:31:50.210Z,81.90
2018-12-01T22:34:55.243Z,81.32
2018-12-01T22:38:00.672Z,80.87
2018-12-01T22:41:05.878Z,81.67
2018-12-01T22:44:10.840Z,81.00
2018-12-01T22:47:15.858Z,81.32
2018-12-01T22:50:21.347Z,81.90
2018-12-01T22:53:26.323Z,81.01
2018-12-01T22:56:31.359Z,81.15
2018-12-01T23:02:39.731Z,81.86
2018-12-01T23:05:45.053Z,82.73
2018-12-01T23:08:50.089Z,82.03
2018-12-01T23:11:55.085Z,81.95
2018-12-01T23:15:00.036Z,81.70
2018-12-01T23:34:09.246Z,83.03
2018-12-01T23:37:14.453Z,83.38
2018-12-01T23:40:19.491Z,83.26
2018-12-01T23:43:24.420Z,83.96
2018-12-01T23:46:29.338Z,83.21
2018-12-01T23:49:34.308Z,83.22
2018-12-01T23:52:39.381Z,82.91
2018-12-01T23:55:48.268Z,82.89
2018-12-01T23:58:53.220Z,83.11
